Time;durP1;ratioP1;P1;durP2;ratioP2;P2;SDS_P1;SDS_P2;PMS_P1;PMS_P2;Temp;Humidity;BMP_temperature;BMP_pressure;BME280_temperature;BME280_humidity;BME280_pressure;Samples;Min_cycle;Max_cycle;Signal;HPM_P1;HPM_P2
2022/07/07 00:55:02;;;;;;;7.10;4.38;;;;;;;;;;6261664;22;20200;-88
2022/07/07 00:57:36;;;;;;;6.05;3.97;;;;;;;;;;6275310;22;20176;-88
2022/07/07 01:00:07;;;;;;;6.95;4.10;;;;;;;;;;6276503;22;20168;-88
2022/07/07 01:02:39;;;;;;;6.90;3.90;;;;;;;;;;6276519;22;20209;-89
2022/07/07 01:05:08;;;;;;;5.57;3.80;;;;;;;;;;6276497;22;20263;-88
2022/07/07 01:07:37;;;;;;;6.15;3.55;;;;;;;;;;6276017;22;20250;-86
2022/07/07 01:10:08;;;;;;;6.38;3.95;;;;;;;;;;6273888;22;20636;-88
2022/07/07 01:12:38;;;;;;;5.95;3.50;;;;;;;;;;6284949;22;20199;-88
2022/07/07 01:15:06;;;;;;;7.35;3.83;;;;;;;;;;6304279;22;20204;-88
2022/07/07 01:17:35;;;;;;;5.43;3.25;;;;;;;;;;6291045;22;20164;-88
2022/07/07 01:20:06;;;;;;;4.60;3.00;;;;;;;;;;6279700;22;20179;-88
2022/07/07 01:22:40;;;;;;;7.00;3.50;;;;;;;;;;6276084;22;20217;-87
2022/07/07 01:25:11;;;;;;;5.95;3.00;;;;;;;;;;6275583;22;20219;-88
2022/07/07 01:27:39;;;;;;;4.90;3.28;;;;;;;;;;6275622;22;20233;-88
2022/07/07 01:30:07;;;;;;;4.82;3.25;;;;;;;;;;6276226;22;20612;-87
2022/07/07 01:32:34;;;;;;;4.00;3.05;;;;;;;;;;6275841;22;20203;-88
2022/07/07 01:35:10;;;;;;;3.75;2.95;;;;;;;;;;6275922;22;20192;-88
2022/07/07 01:37:38;;;;;;;5.07;2.90;;;;;;;;;;6275339;22;20206;-88
2022/07/07 01:40:06;;;;;;;4.65;2.95;;;;;;;;;;6275451;22;20168;-87
2022/07/07 01:42:35;;;;;;;5.03;3.00;;;;;;;;;;6279026;22;20168;-88
2022/07/07 01:45:02;;;;;;;4.53;3.00;;;;;;;;;;6278564;22;20207;-88
2022/07/07 01:47:30;;;;;;;4.35;3.10;;;;;;;;;;6275208;22;20247;-88
2022/07/07 01:49:57;;;;;;;3.78;2.60;;;;;;;;;;6275275;22;20569;-88
2022/07/07 01:52:27;;;;;;;3.40;2.72;;;;;;;;;;6275264;22;20655;-88
2022/07/07 01:54:59;;;;;;;3.17;2.60;;;;;;;;;;6275560;22;20222;-88
2022/07/07 01:57:26;;;;;;;4.70;2.72;;;;;;;;;;6275167;22;20218;-88
2022/07/07 02:00:02;;;;;;;3.65;2.60;;;;;;;;;;6275119;22;20172;-88
2022/07/07 02:02:30;;;;;;;4.15;2.88;;;;;;;;;;6275584;22;20160;-88
2022/07/07 02:04:57;;;;;;;3.20;2.50;;;;;;;;;;6275495;22;20241;-88
2022/07/07 02:07:25;;;;;;;4.68;2.65;;;;;;;;;;6274901;22;20172;-87
2022/07/07 02:09:52;;;;;;;2.70;2.40;;;;;;;;;;6275416;22;20221;-88
2022/07/07 02:12:20;;;;;;;3.35;2.45;;;;;;;;;;6275647;22;20243;-88
2022/07/07 02:14:47;;;;;;;3.00;2.30;;;;;;;;;;6274848;22;20605;-88
2022/07/07 02:17:17;;;;;;;2.90;2.30;;;;;;;;;;6274863;22;20172;-88
2022/07/07 02:19:45;;;;;;;3.53;2.40;;;;;;;;;;6274957;22;20167;-87
2022/07/07 02:22:12;;;;;;;3.63;2.50;;;;;;;;;;6274913;22;20249;-88
2022/07/07 02:24:40;;;;;;;3.83;2.72;;;;;;;;;;6274991;22;20538;-88
2022/07/07 02:27:07;;;;;;;3.33;1.95;;;;;;;;;;6274653;22;20246;-88
2022/07/07 02:29:34;;;;;;;2.10;1.90;;;;;;;;;;6274975;22;20171;-87
2022/07/07 02:32:01;;;;;;;3.22;2.33;;;;;;;;;;6275726;22;20195;-87
2022/07/07 02:34:30;;;;;;;2.15;1.95;;;;;;;;;;6274935;22;20191;-89
2022/07/07 02:36:58;;;;;;;2.10;1.80;;;;;;;;;;6274871;22;20172;-89
2022/07/07 02:39:25;;;;;;;3.58;2.00;;;;;;;;;;6274956;22;20230;-89
2022/07/07 02:41:52;;;;;;;2.97;1.98;;;;;;;;;;6275107;22;20641;-87
2022/07/07 02:44:19;;;;;;;2.70;2.10;;;;;;;;;;6274754;22;20192;-88
2022/07/07 02:46:47;;;;;;;2.88;2.08;;;;;;;;;;6274549;22;20229;-89
2022/07/07 02:49:14;;;;;;;2.30;1.90;;;;;;;;;;6275267;22;20168;-88
2022/07/07 02:51:43;;;;;;;2.38;1.95;;;;;;;;;;6274992;22;20178;-88
2022/07/07 02:54:11;;;;;;;3.83;2.03;;;;;;;;;;6274549;22;20199;-88
2022/07/07 02:56:38;;;;;;;2.65;1.63;;;;;;;;;;6274884;22;20184;-89
2022/07/07 02:59:05;;;;;;;1.77;1.67;;;;;;;;;;6275222;22;20172;-88
2022/07/07 03:01:34;;;;;;;2.58;1.95;;;;;;;;;;6274990;22;20172;-89
2022/07/07 03:04:02;;;;;;;2.17;1.80;;;;;;;;;;6274924;22;20198;-87
2022/07/07 03:06:32;;;;;;;1.90;1.70;;;;;;;;;;6274532;22;20552;-88
2022/07/07 03:09:12;;;;;;;2.55;1.80;;;;;;;;;;6274788;22;20522;-89
2022/07/07 03:11:42;;;;;;;6.10;2.10;;;;;;;;;;6274691;22;20163;-88
2022/07/07 03:14:10;;;;;;;2.15;1.92;;;;;;;;;;6275392;22;20188;-88
2022/07/07 03:16:37;;;;;;;2.80;1.80;;;;;;;;;;6274384;22;20168;-89
2022/07/07 03:28:17;;;;;;;1.60;1.50;;;;;;;;;;6273428;22;20186;-89
2022/07/07 03:30:52;;;;;;;1.70;1.60;;;;;;;;;;6274601;22;20179;-88
2022/07/07 03:33:20;;;;;;;1.80;1.65;;;;;;;;;;6275307;22;20183;-88
2022/07/07 03:35:47;;;;;;;2.00;1.80;;;;;;;;;;6277170;22;20226;-87
2022/07/07 03:38:15;;;;;;;2.33;1.70;;;;;;;;;;6276549;22;20172;-88
2022/07/07 03:40:45;;;;;;;2.67;1.80;;;;;;;;;;6277048;22;20175;-88
2022/07/07 03:43:18;;;;;;;1.67;1.58;;;;;;;;;;6277347;22;20251;-88
2022/07/07 03:45:49;;;;;;;2.92;2.22;;;;;;;;;;6276891;22;20164;-88
2022/07/07 03:48:20;;;;;;;2.20;1.63;;;;;;;;;;6276591;22;20178;-88
2022/07/07 03:50:48;;;;;;;2.50;1.73;;;;;;;;;;6276822;22;20168;-88
2022/07/07 03:53:15;;;;;;;2.58;1.98;;;;;;;;;;6276689;22;20276;-88
2022/07/07 03:55:43;;;;;;;1.77;1.58;;;;;;;;;;6276431;22;20179;-88
2022/07/07 03:58:12;;;;;;;1.70;1.60;;;;;;;;;;6276339;22;20210;-88
2022/07/07 04:00:39;;;;;;;2.33;1.70;;;;;;;;;;6277059;22;20191;-87
2022/07/07 04:03:10;;;;;;;1.85;1.60;;;;;;;;;;6277076;22;20218;-88
2022/07/07 04:05:42;;;;;;;2.28;1.55;;;;;;;;;;6276641;22;20168;-86
2022/07/07 04:08:09;;;;;;;1.98;1.40;;;;;;;;;;6276787;22;20175;-88
2022/07/07 04:10:37;;;;;;;1.80;1.70;;;;;;;;;;6277013;22;20178;-87
2022/07/07 04:13:09;;;;;;;3.00;1.75;;;;;;;;;;6276530;22;20188;-87
2022/07/07 04:15:44;;;;;;;1.95;1.50;;;;;;;;;;6276559;22;20192;-86
2022/07/07 04:18:19;;;;;;;2.35;1.70;;;;;;;;;;6276715;22;20167;-88
2022/07/07 04:20:48;;;;;;;1.50;1.40;;;;;;;;;;6276897;22;20171;-88
2022/07/07 04:23:26;;;;;;;2.63;1.63;;;;;;;;;;6276358;22;20175;-88
2022/07/07 04:25:58;;;;;;;1.85;1.65;;;;;;;;;;6276453;22;20191;-87
2022/07/07 04:28:26;;;;;;;2.88;1.50;;;;;;;;;;6276138;22;20165;-87
2022/07/07 04:30:56;;;;;;;2.00;1.40;;;;;;;;;;6276354;22;20186;-87
2022/07/07 04:33:26;;;;;;;2.78;1.60;;;;;;;;;;6275624;22;20210;-88
2022/07/07 04:35:53;;;;;;;2.55;1.55;;;;;;;;;;6275598;22;20183;-88
2022/07/07 04:38:20;;;;;;;1.50;1.40;;;;;;;;;;6276336;22;20206;-88
2022/07/07 04:40:48;;;;;;;2.25;1.50;;;;;;;;;;6275669;22;20239;-89
2022/07/07 04:43:15;;;;;;;2.83;1.48;;;;;;;;;;6275650;22;20620;-88
2022/07/07 04:45:42;;;;;;;1.63;1.52;;;;;;;;;;6276248;22;20356;-89
2022/07/07 04:48:10;;;;;;;2.53;1.50;;;;;;;;;;6275967;22;20172;-88
2022/07/07 04:50:53;;;;;;;9.30;3.15;;;;;;;;;;6276607;22;20207;-90
2022/07/07 04:53:22;;;;;;;18.95;5.50;;;;;;;;;;6276148;22;20179;-89
2022/07/07 04:55:49;;;;;;;28.10;7.13;;;;;;;;;;6275998;22;20164;-88
2022/07/07 04:58:20;;;;;;;25.67;6.63;;;;;;;;;;6275179;22;20237;-90
2022/07/07 05:00:47;;;;;;;1999.90;999.90;;;;;;;;;;6275567;22;20168;-87
2022/07/07 05:03:17;;;;;;;1999.90;679.85;;;;;;;;;;6275874;22;20510;-90
2022/07/07 05:05:46;;;;;;;1999.90;728.42;;;;;;;;;;6275084;22;20172;-91
2022/07/07 05:08:14;;;;;;;1999.90;724.83;;;;;;;;;;6276253;22;20175;-89
2022/07/07 05:10:43;;;;;;;1999.90;656.80;;;;;;;;;;6276813;22;20175;-93
2022/07/07 05:13:10;;;;;;;1999.90;623.97;;;;;;;;;;6276372;22;20191;-91
2022/07/07 05:15:48;;;;;;;913.78;278.25;;;;;;;;;;6276370;22;20226;-89
2022/07/07 05:18:26;;;;;;;326.83;98.22;;;;;;;;;;6278760;22;20164;-93
2022/07/07 05:21:19;;;;;;;99.18;31.20;;;;;;;;;;6277292;22;20172;-91
2022/07/07 05:23:54;;;;;;;64.30;22.23;;;;;;;;;;6275643;22;20733;-91
2022/07/07 05:26:41;;;;;;;;;;;;;;;;;;;;;
2022/07/07 05:29:43;;;;;;;55.55;17.92;;;;;;;;;;6275836;22;20144;-88
2022/07/07 05:35:10;;;;;;;45.50;14.65;;;;;;;;;;6246693;22;20228;-90
2022/07/07 05:37:52;;;;;;;48.80;15.65;;;;;;;;;;6275872;22;20174;-90
2022/07/07 05:40:27;;;;;;;39.17;12.25;;;;;;;;;;6274640;22;20172;-89
2022/07/07 05:42:54;;;;;;;36.10;12.05;;;;;;;;;;6274789;22;20160;-90
2022/07/07 05:45:33;;;;;;;33.35;11.05;;;;;;;;;;6275104;22;20199;-90
2022/07/07 05:48:09;;;;;;;28.45;11.43;;;;;;;;;;6275711;22;20159;-91
2022/07/07 05:50:37;;;;;;;27.38;8.98;;;;;;;;;;6275463;22;20201;-91
2022/07/07 05:53:21;;;;;;;21.73;7.97;;;;;;;;;;6274952;22;20183;-90
2022/07/07 05:59:13;;;;;;;26.00;8.60;;;;;;;;;;6123005;23;20174;-89
2022/07/07 06:09:03;;;;;;;;;;;;;;;;;;;;;
2022/07/07 06:30:31;;;;;;;10.05;4.07;;;;;;;;;;6274711;22;20270;-91
2022/07/07 06:33:19;;;;;;;11.00;4.55;;;;;;;;;;6273840;22;20202;-92
2022/07/07 06:36:17;;;;;;;10.95;3.70;;;;;;;;;;6245031;22;20168;-92
2022/07/07 06:38:55;;;;;;;7.07;3.70;;;;;;;;;;6244138;23;20172;-92
2022/07/07 06:41:37;;;;;;;5.38;2.95;;;;;;;;;;6245358;23;20218;-91
2022/07/07 06:49:16;;;;;;;4.68;2.60;;;;;;;;;;6274572;22;20180;-91
2022/07/07 06:52:06;;;;;;;5.72;3.05;;;;;;;;;;6275532;22;20175;-91
2022/07/07 11:45:21;;;;;;;;;;;;;;;;;;;;;
2022/07/07 11:47:54;;;;;;;2.25;1.70;;;;;;;;;;6266443;22;20172;-89
2022/07/07 11:50:24;;;;;;;3.17;1.70;;;;;;;;;;6276898;22;20191;-89
2022/07/07 11:53:07;;;;;;;2.50;1.80;;;;;;;;;;6276083;22;20175;-89
2022/07/07 11:58:21;;;;;;;2.25;1.70;;;;;;;;;;6277864;22;20226;-89
2022/07/07 12:01:03;;;;;;;2.83;1.83;;;;;;;;;;6279400;22;20172;-90
2022/07/07 12:03:49;;;;;;;4.30;1.98;;;;;;;;;;6278950;22;20160;-88
2022/07/07 12:06:28;;;;;;;2.35;1.90;;;;;;;;;;6278083;22;20160;-89
2022/07/07 12:11:39;;;;;;;4.32;2.15;;;;;;;;;;6274236;22;20168;-89
2022/07/07 12:14:33;;;;;;;3.90;2.10;;;;;;;;;;6276012;22;20192;-90
2022/07/07 12:17:02;;;;;;;3.03;1.95;;;;;;;;;;6276550;22;20172;-89
2022/07/07 12:19:54;;;;;;;2.97;2.00;;;;;;;;;;6277849;22;20203;-89
2022/07/07 12:22:40;;;;;;;7.80;7.10;;;;;;;;;;6277558;22;20179;-90
2022/07/07 12:30:54;;;;;;;6.55;4.88;;;;;;;;;;6275153;22;20176;-90
2022/07/07 12:36:24;;;;;;;6.32;4.07;;;;;;;;;;6275124;22;20172;-91
2022/07/07 12:38:58;;;;;;;3.47;3.20;;;;;;;;;;6276022;22;20171;-91
2022/07/07 12:41:35;;;;;;;5.35;3.50;;;;;;;;;;6277109;22;20195;-91
2022/07/07 12:44:18;;;;;;;3.63;3.00;;;;;;;;;;6276147;22;20206;-90
2022/07/07 12:46:48;;;;;;;4.32;3.25;;;;;;;;;;6276755;22;20203;-90
2022/07/07 12:49:15;;;;;;;3.05;2.60;;;;;;;;;;6276691;22;20229;-91
2022/07/07 12:57:21;;;;;;;5.25;2.70;;;;;;;;;;6275104;22;20179;-88
2022/07/07 13:03:36;;;;;;;3.17;2.35;;;;;;;;;;6275800;22;20175;-87
2022/07/07 13:12:54;;;;;;;5.80;2.40;;;;;;;;;;6211486;23;20170;-89
2022/07/07 13:15:58;;;;;;;3.88;2.40;;;;;;;;;;6222446;22;20647;-86
2022/07/07 13:18:27;;;;;;;2.63;2.25;;;;;;;;;;6276365;22;20164;-91
2022/07/07 16:09:59;;;;;;;2.00;1.00;;;;;;;;;;6275100;22;20208;-88
2022/07/07 16:12:36;;;;;;;1.63;1.10;;;;;;;;;;6277471;22;20166;-87
2022/07/07 16:15:04;;;;;;;2.15;1.25;;;;;;;;;;6276313;22;20191;-86
2022/07/07 16:17:40;;;;;;;1.05;1.00;;;;;;;;;;6277657;22;20178;-87
2022/07/07 16:20:21;;;;;;;1.20;1.10;;;;;;;;;;6276150;22;20554;-87
2022/07/07 16:22:53;;;;;;;1.45;1.10;;;;;;;;;;6276206;22;20201;-87
2022/07/07 16:25:23;;;;;;;1.25;1.10;;;;;;;;;;6277257;22;20262;-88
2022/07/07 16:27:58;;;;;;;1.70;1.10;;;;;;;;;;6278450;22;20252;-88
2022/07/07 16:33:23;;;;;;;1.13;1.02;;;;;;;;;;6275586;22;20210;-88
2022/07/07 16:39:14;;;;;;;2.05;1.20;;;;;;;;;;6181730;23;20201;-88
2022/07/07 16:41:49;;;;;;;1.25;1.10;;;;;;;;;;6182354;23;20201;-87
2022/07/07 16:44:22;;;;;;;1.92;1.40;;;;;;;;;;6182193;23;20657;-88
2022/07/07 16:46:53;;;;;;;1.42;1.30;;;;;;;;;;6182069;23;20602;-87
2022/07/07 16:49:24;;;;;;;1.55;1.42;;;;;;;;;;6182800;23;20224;-87
2022/07/07 16:51:52;;;;;;;1.60;1.20;;;;;;;;;;6182737;23;20174;-87
2022/07/07 16:54:21;;;;;;;1.73;1.00;;;;;;;;;;6182167;23;20710;-88
2022/07/07 16:59:57;;;;;;;1.77;1.17;;;;;;;;;;6173859;23;20186;-88
2022/07/07 17:02:24;;;;;;;1.75;1.08;;;;;;;;;;6183036;23;20173;-87
2022/07/07 17:04:55;;;;;;;1.30;1.20;;;;;;;;;;6182165;23;20190;-87
2022/07/07 17:07:25;;;;;;;1.20;1.10;;;;;;;;;;6182344;23;20178;-87
2022/07/07 17:09:58;;;;;;;1.42;1.20;;;;;;;;;;6182388;23;20213;-87
2022/07/07 17:12:40;;;;;;;1.05;1.00;;;;;;;;;;6182812;23;20174;-87
2022/07/07 17:15:19;;;;;;;1.30;1.10;;;;;;;;;;6222707;22;20218;-87
2022/07/07 17:17:47;;;;;;;1.30;1.20;;;;;;;;;;6277378;22;20198;-86
2022/07/07 17:20:24;;;;;;;1.27;1.10;;;;;;;;;;6276444;22;20179;-87
2022/07/07 18:51:54;;;;;;;2.88;1.88;;;;;;;;;;6276239;22;20167;-88
2022/07/07 19:44:17;;;;;;;11.68;5.85;;;;;;;;;;6246102;23;20207;-89
2022/07/07 19:46:49;;;;;;;2.38;1.65;;;;;;;;;;6212589;23;20185;-89
2022/07/07 19:52:23;;;;;;;5.03;2.55;;;;;;;;;;6125405;23;20170;-90
2022/07/07 19:55:00;;;;;;;4.07;2.20;;;;;;;;;;6151553;23;20194;-88
2022/07/07 19:57:35;;;;;;;3.58;2.30;;;;;;;;;;6149803;23;20258;-90
2022/07/07 20:00:02;;;;;;;5.72;2.20;;;;;;;;;;6150771;23;20170;-89
2022/07/07 20:02:47;;;;;;;3.42;2.05;;;;;;;;;;6151546;23;20175;-89
2022/07/07 20:05:17;;;;;;;4.15;2.60;;;;;;;;;;6151798;23;20545;-90
2022/07/07 20:07:46;;;;;;;2.35;1.98;;;;;;;;;;6151116;23;20175;-91
2022/07/07 20:10:13;;;;;;;3.40;2.10;;;;;;;;;;6150866;23;20209;-89
2022/07/07 20:12:53;;;;;;;2.67;1.88;;;;;;;;;;6150690;23;20619;-90
2022/07/07 20:15:22;;;;;;;9.68;3.17;;;;;;;;;;6154841;23;20205;-89
2022/07/07 20:17:49;;;;;;;7.05;2.85;;;;;;;;;;6152686;23;20245;-90
2022/07/07 20:20:47;;;;;;;6.78;2.92;;;;;;;;;;6151758;23;20174;-92
2022/07/07 20:23:21;;;;;;;5.80;2.65;;;;;;;;;;6036961;23;20252;-91
2022/07/07 20:25:49;;;;;;;6.32;2.72;;;;;;;;;;6036283;23;20240;-91
2022/07/07 20:28:18;;;;;;;4.60;2.55;;;;;;;;;;6044583;23;20177;-92
2022/07/07 20:30:46;;;;;;;6.05;2.42;;;;;;;;;;6123451;23;20175;-91
2022/07/07 20:33:14;;;;;;;4.00;2.38;;;;;;;;;;6123662;23;20178;-91
2022/07/07 20:35:42;;;;;;;3.30;2.03;;;;;;;;;;6122385;23;20250;-91
2022/07/07 20:38:09;;;;;;;6.00;2.10;;;;;;;;;;6123791;23;20614;-88
2022/07/07 20:40:37;;;;;;;4.95;2.10;;;;;;;;;;6146817;23;20265;-89
2022/07/07 20:43:05;;;;;;;3.08;1.90;;;;;;;;;;6153224;23;20174;-91
2022/07/07 20:45:34;;;;;;;4.78;2.33;;;;;;;;;;6153077;23;20193;-91
2022/07/07 20:48:02;;;;;;;3.63;2.10;;;;;;;;;;6152799;23;20214;-90
2022/07/07 20:50:31;;;;;;;3.72;1.85;;;;;;;;;;6153104;23;20177;-91
2022/07/07 20:52:58;;;;;;;3.38;2.17;;;;;;;;;;6153169;23;20170;-91
2022/07/07 20:55:25;;;;;;;5.20;1.88;;;;;;;;;;6152704;23;20219;-91
2022/07/07 20:57:55;;;;;;;2.55;1.95;;;;;;;;;;6152307;23;20177;-91
2022/07/07 21:00:25;;;;;;;4.05;1.98;;;;;;;;;;6204561;23;20179;-91
2022/07/07 21:02:53;;;;;;;2.33;1.58;;;;;;;;;;6245551;23;20173;-89
2022/07/07 21:05:21;;;;;;;3.05;2.10;;;;;;;;;;6245260;23;20188;-89
2022/07/07 21:07:48;;;;;;;3.40;1.98;;;;;;;;;;6245547;23;20172;-90
2022/07/07 21:10:19;;;;;;;4.40;1.95;;;;;;;;;;6244222;23;20570;-91
2022/07/07 21:12:46;;;;;;;2.95;1.67;;;;;;;;;;6244727;23;20175;-92
2022/07/07 21:15:13;;;;;;;2.58;1.70;;;;;;;;;;6245523;23;20189;-91
2022/07/07 21:17:43;;;;;;;2.85;1.75;;;;;;;;;;6245321;23;20207;-91
2022/07/07 21:20:12;;;;;;;1.85;1.55;;;;;;;;;;6245551;23;20223;-91
2022/07/07 21:22:42;;;;;;;5.03;2.10;;;;;;;;;;6245227;22;20173;-92
2022/07/07 21:25:12;;;;;;;3.17;1.70;;;;;;;;;;6245713;23;20189;-91
2022/07/07 21:27:53;;;;;;;4.43;1.90;;;;;;;;;;6244378;23;20204;-92
2022/07/07 21:30:28;;;;;;;4.53;1.80;;;;;;;;;;6245616;23;20165;-91
2022/07/07 21:32:55;;;;;;;2.38;1.70;;;;;;;;;;6245399;23;20202;-88
2022/07/07 21:35:25;;;;;;;2.40;1.92;;;;;;;;;;6245655;23;20630;-90
2022/07/07 21:37:52;;;;;;;3.05;1.83;;;;;;;;;;6245432;23;20177;-89
2022/07/07 21:40:19;;;;;;;3.88;1.70;;;;;;;;;;6245009;23;20210;-89
2022/07/07 21:42:48;;;;;;;3.17;1.75;;;;;;;;;;6245638;22;20180;-90
2022/07/07 21:45:16;;;;;;;2.30;1.42;;;;;;;;;;6245035;22;20212;-90
2022/07/07 21:47:43;;;;;;;2.60;1.70;;;;;;;;;;6245203;23;20227;-90
2022/07/07 21:50:11;;;;;;;3.50;1.80;;;;;;;;;;6244799;23;20176;-91
2022/07/07 21:52:39;;;;;;;2.22;1.70;;;;;;;;;;6245375;22;20192;-90
2022/07/07 21:55:07;;;;;;;5.03;2.00;;;;;;;;;;6244594;22;20193;-91
2022/07/07 21:57:34;;;;;;;2.50;1.80;;;;;;;;;;6244844;22;20177;-89
2022/07/07 22:00:02;;;;;;;4.03;1.65;;;;;;;;;;6244860;22;20173;-89
2022/07/07 22:02:29;;;;;;;3.08;1.55;;;;;;;;;;6245141;23;20168;-91
2022/07/07 22:07:43;;;;;;;1.88;1.42;;;;;;;;;;6245159;23;20156;-91
2022/07/07 22:10:10;;;;;;;1.70;1.60;;;;;;;;;;6244788;22;20172;-90
2022/07/07 22:12:37;;;;;;;2.33;1.50;;;;;;;;;;6257389;22;20172;-92
2022/07/07 22:15:05;;;;;;;2.65;1.58;;;;;;;;;;6254589;22;20235;-90
2022/07/07 22:17:33;;;;;;;2.30;1.40;;;;;;;;;;6246701;22;20252;-90
2022/07/07 22:20:00;;;;;;;2.33;1.50;;;;;;;;;;6244945;22;20169;-91
2022/07/07 22:22:29;;;;;;;2.78;1.60;;;;;;;;;;6244838;22;20180;-90
2022/07/07 22:24:58;;;;;;;3.60;1.40;;;;;;;;;;6244475;22;20192;-91
2022/07/07 22:27:25;;;;;;;2.05;1.60;;;;;;;;;;6244646;23;20223;-91
2022/07/07 22:29:52;;;;;;;1.50;1.17;;;;;;;;;;6244515;22;20172;-90
2022/07/07 22:32:20;;;;;;;2.17;1.20;;;;;;;;;;6244781;22;20243;-90
2022/07/07 22:34:47;;;;;;;2.10;1.50;;;;;;;;;;6244472;22;20593;-89
2022/07/07 22:37:17;;;;;;;2.33;1.20;;;;;;;;;;6244962;22;20247;-90
2022/07/07 22:39:47;;;;;;;2.70;1.42;;;;;;;;;;6243886;23;20185;-90
2022/07/07 22:42:16;;;;;;;1.85;1.30;;;;;;;;;;6244324;22;20447;-91
2022/07/07 22:44:44;;;;;;;2.85;1.23;;;;;;;;;;6243027;22;20603;-88
2022/07/07 22:47:11;;;;;;;1.88;1.30;;;;;;;;;;6243066;22;20168;-91
2022/07/07 22:49:39;;;;;;;1.95;1.50;;;;;;;;;;6244327;22;20173;-91
2022/07/07 22:52:07;;;;;;;2.55;1.60;;;;;;;;;;6244626;22;20181;-91
2022/07/07 22:54:36;;;;;;;2.95;1.63;;;;;;;;;;6244486;22;20172;-91
2022/07/07 22:57:05;;;;;;;2.17;1.33;;;;;;;;;;6244490;23;20200;-91
2022/07/07 22:59:36;;;;;;;1.73;1.45;;;;;;;;;;6244109;22;20179;-91
2022/07/07 23:02:04;;;;;;;1.88;1.40;;;;;;;;;;6244461;22;20165;-91
2022/07/07 23:04:31;;;;;;;2.25;1.50;;;;;;;;;;6244692;23;20173;-90
2022/07/07 23:06:58;;;;;;;1.90;1.48;;;;;;;;;;6243865;22;20168;-91
2022/07/07 23:09:26;;;;;;;1.50;1.20;;;;;;;;;;6244598;22;20231;-90
2022/07/07 23:11:53;;;;;;;1.83;1.20;;;;;;;;;;6244230;22;20226;-90
2022/07/07 23:14:23;;;;;;;1.40;1.30;;;;;;;;;;6244097;22;20561;-90
2022/07/07 23:16:53;;;;;;;1.95;1.40;;;;;;;;;;6243712;22;20185;-90
2022/07/07 23:19:20;;;;;;;2.40;1.50;;;;;;;;;;6244478;23;20172;-90
2022/07/07 23:21:47;;;;;;;1.33;1.10;;;;;;;;;;6244014;22;20195;-90
2022/07/07 23:24:15;;;;;;;2.40;1.30;;;;;;;;;;6244264;22;20204;-90
2022/07/07 23:26:42;;;;;;;1.50;1.40;;;;;;;;;;6244098;22;20191;-90
2022/07/07 23:29:09;;;;;;;2.17;1.25;;;;;;;;;;6244364;23;20234;-90
2022/07/07 23:31:37;;;;;;;1.55;1.10;;;;;;;;;;6244577;22;20230;-90
2022/07/07 23:34:05;;;;;;;1.60;1.23;;;;;;;;;;6244195;22;20199;-91
2022/07/07 23:36:33;;;;;;;1.30;1.20;;;;;;;;;;6244111;22;20632;-90
2022/07/07 23:39:00;;;;;;;1.48;1.20;;;;;;;;;;6243857;22;20176;-90
2022/07/07 23:41:27;;;;;;;1.83;1.20;;;;;;;;;;6242700;22;20234;-92
2022/07/07 23:43:55;;;;;;;1.55;1.10;;;;;;;;;;6242460;22;20192;-90
2022/07/07 23:46:22;;;;;;;1.85;1.10;;;;;;;;;;6242367;22;20211;-91
2022/07/07 23:48:49;;;;;;;1.50;1.38;;;;;;;;;;6243862;22;20169;-91
2022/07/07 23:51:18;;;;;;;2.13;1.10;;;;;;;;;;6245640;23;20172;-91
2022/07/07 23:53:46;;;;;;;2.13;1.25;;;;;;;;;;6246104;22;20173;-90
2022/07/07 23:56:13;;;;;;;1.73;1.20;;;;;;;;;;6245437;22;20660;-91
2022/07/07 23:58:40;;;;;;;1.98;1.10;;;;;;;;;;6245940;22;20172;-90
